Time;durP1;ratioP1;P1;durP2;ratioP2;P2;SDS_P1;SDS_P2;PMS_P1;PMS_P2;Temp;Humidity;BMP_temperature;BMP_pressure;BME280_temperature;BME280_humidity;BME280_pressure;Samples;Min_cycle;Max_cycle;Signal;HPM_P1;HPM_P2
2023/03/06 05:05:39;;;;;;;11.18;9.48;;;3.50;99.90;;;;;;5320204;22;20285;-72
2023/03/06 05:08:05;;;;;;;9.93;8.35;;;3.50;99.90;;;;;;5073448;28;20222;-73
2023/03/06 05:10:31;;;;;;;17.45;7.57;;;3.50;99.90;;;;;;5072847;28;20173;-72
2023/03/06 05:12:56;;;;;;;11.80;7.97;;;3.40;99.90;;;;;;5073043;28;20196;-70
2023/03/06 05:15:22;;;;;;;13.07;9.60;;;3.40;99.90;;;;;;5074930;28;20195;-71
2023/03/06 05:17:48;;;;;;;9.10;6.65;;;3.40;99.90;;;;;;5093761;28;20216;-71
2023/03/06 05:20:15;;;;;;;14.37;6.87;;;3.40;99.90;;;;;;5093678;28;20167;-72
2023/03/06 05:22:41;;;;;;;11.10;7.38;;;3.40;99.90;;;;;;5092224;28;20199;-70
2023/03/06 05:25:07;;;;;;;13.37;7.90;;;3.40;99.90;;;;;;5093158;28;20203;-72
2023/03/06 05:27:33;;;;;;;10.60;6.60;;;3.30;99.90;;;;;;5090297;28;20179;-71
2023/03/06 05:29:59;;;;;;;14.18;8.60;;;3.40;99.90;;;;;;5072630;28;20454;-72
2023/03/06 05:32:24;;;;;;;12.13;7.97;;;3.30;99.90;;;;;;5072645;28;20235;-73
2023/03/06 05:34:50;;;;;;;11.33;9.77;;;3.30;99.90;;;;;;5071093;28;20438;-71
2023/03/06 05:37:16;;;;;;;13.33;8.63;;;3.30;99.90;;;;;;5072393;28;20314;-72
2023/03/06 05:39:41;;;;;;;8.37;7.00;;;3.30;99.90;;;;;;5073444;28;20183;-72
2023/03/06 05:42:07;;;;;;;13.97;7.43;;;3.30;99.90;;;;;;5066265;28;20595;-70
2023/03/06 05:44:34;;;;;;;11.83;9.30;;;3.30;99.90;;;;;;5064124;28;20192;-71
2023/03/06 05:47:00;;;;;;;12.88;7.03;;;3.30;99.90;;;;;;5053009;28;20416;-71
2023/03/06 05:49:29;;;;;;;8.17;6.70;;;3.40;99.90;;;;;;5073405;28;20169;-71
2023/03/06 05:51:55;;;;;;;11.57;7.70;;;3.40;99.90;;;;;;5076367;28;20831;-72
2023/03/06 05:54:23;;;;;;;12.80;10.10;;;3.40;99.90;;;;;;5075207;28;20197;-70
2023/03/06 05:56:50;;;;;;;9.95;7.25;;;3.30;99.90;;;;;;5076696;28;20193;-69
2023/03/06 05:59:16;;;;;;;14.18;8.85;;;3.30;99.90;;;;;;5075764;28;20196;-68
2023/03/06 06:01:42;;;;;;;13.48;6.75;;;3.30;99.90;;;;;;5075800;28;20169;-72
2023/03/06 06:04:10;;;;;;;14.40;8.07;;;3.30;99.90;;;;;;5074762;28;20211;-69
2023/03/06 06:06:36;;;;;;;9.75;7.22;;;3.40;99.90;;;;;;5076471;28;20180;-71
2023/03/06 06:09:02;;;;;;;10.60;8.17;;;3.40;99.90;;;;;;5074862;28;20176;-71
2023/03/06 06:11:27;;;;;;;10.82;7.15;;;3.40;99.90;;;;;;5076628;28;20472;-71
2023/03/06 06:13:53;;;;;;;9.53;7.20;;;3.40;99.90;;;;;;5075602;28;20213;-70
2023/03/06 06:16:19;;;;;;;8.87;7.60;;;3.40;99.90;;;;;;5076110;28;20173;-72
2023/03/06 06:18:44;;;;;;;12.43;8.00;;;3.30;99.90;;;;;;5076014;28;20182;-71
2023/03/06 06:21:13;;;;;;;12.43;7.93;;;3.30;99.90;;;;;;5075224;28;20177;-74
2023/03/06 06:23:39;;;;;;;13.18;8.05;;;3.30;99.90;;;;;;5074416;28;20197;-70
2023/03/06 06:26:07;;;;;;;12.88;7.60;;;3.40;99.90;;;;;;5074996;28;20169;-72
2023/03/06 06:28:32;;;;;;;12.85;9.02;;;3.40;99.90;;;;;;5075073;28;20175;-72
2023/03/06 06:30:58;;;;;;;11.17;7.77;;;3.40;99.90;;;;;;5076418;28;20168;-70
2023/03/06 06:33:24;;;;;;;11.47;6.60;;;3.40;99.90;;;;;;5064099;28;20406;-71
2023/03/06 06:35:50;;;;;;;12.53;6.70;;;3.40;99.90;;;;;;5076183;28;20192;-66
2023/03/06 06:38:16;;;;;;;10.13;7.10;;;3.40;99.90;;;;;;5074908;28;20173;-70
2023/03/06 06:40:42;;;;;;;13.23;7.70;;;3.40;99.90;;;;;;5074575;28;20216;-71
2023/03/06 06:43:07;;;;;;;12.37;8.27;;;3.40;99.90;;;;;;5075398;28;20207;-70
2023/03/06 06:45:33;;;;;;;8.47;6.40;;;3.40;99.90;;;;;;5076024;28;20254;-69
2023/03/06 06:47:59;;;;;;;8.83;7.40;;;3.40;99.90;;;;;;5075791;28;20215;-69
2023/03/06 06:50:25;;;;;;;13.30;8.07;;;3.40;99.90;;;;;;5075684;28;20170;-72
2023/03/06 06:52:50;;;;;;;9.10;6.93;;;3.40;99.90;;;;;;5075181;28;20177;-70
2023/03/06 06:55:16;;;;;;;9.07;7.63;;;3.40;99.90;;;;;;5074632;28;20193;-72
2023/03/06 06:57:42;;;;;;;14.60;8.97;;;3.50;99.90;;;;;;5074119;28;20588;-71
2023/03/06 07:00:11;;;;;;;15.70;7.43;;;3.60;99.90;;;;;;5074915;28;20181;-71
2023/03/06 07:02:37;;;;;;;8.63;6.72;;;3.60;99.90;;;;;;5075362;28;20218;-70
2023/03/06 07:05:03;;;;;;;10.33;7.90;;;3.70;99.90;;;;;;5075017;28;20196;-70
2023/03/06 07:07:29;;;;;;;9.30;6.90;;;3.80;99.90;;;;;;5075353;28;20225;-72
2023/03/06 07:09:55;;;;;;;13.48;9.73;;;3.80;99.90;;;;;;5075522;28;20810;-68
2023/03/06 07:12:20;;;;;;;14.90;8.50;;;3.80;99.90;;;;;;5075598;28;20257;-69
2023/03/06 07:14:47;;;;;;;10.00;7.20;;;3.90;99.90;;;;;;5074892;28;20181;-71
2023/03/06 07:17:12;;;;;;;11.40;7.15;;;4.00;99.90;;;;;;5075470;28;20173;-71
2023/03/06 07:19:38;;;;;;;10.80;8.27;;;4.00;99.90;;;;;;5073890;28;20179;-71
2023/03/06 07:22:04;;;;;;;13.90;7.27;;;4.00;99.90;;;;;;5074494;28;20185;-71
2023/03/06 07:24:29;;;;;;;9.43;6.77;;;4.10;99.90;;;;;;5075274;28;20205;-71
2023/03/06 07:26:55;;;;;;;9.27;7.20;;;4.10;99.90;;;;;;5075709;28;20174;-72
2023/03/06 07:29:20;;;;;;;12.37;9.40;;;4.20;99.90;;;;;;5075175;28;20591;-70
2023/03/06 07:31:46;;;;;;;11.00;7.93;;;4.20;99.90;;;;;;5075164;28;20198;-71
2023/03/06 07:34:13;;;;;;;11.73;6.00;;;4.30;99.90;;;;;;5074594;28;20250;-70
2023/03/06 07:36:39;;;;;;;9.25;6.53;;;4.40;99.90;;;;;;5075114;28;20178;-71
2023/03/06 07:39:06;;;;;;;11.73;6.70;;;4.50;99.90;;;;;;5074706;28;20683;-71
2023/03/06 07:41:33;;;;;;;6.72;5.10;;;4.60;99.90;;;;;;5075005;28;20580;-72
2023/03/06 07:43:58;;;;;;;14.38;6.53;;;4.70;99.90;;;;;;5073053;28;20571;-71
2023/03/06 07:46:24;;;;;;;6.23;4.77;;;4.80;99.90;;;;;;5074638;28;20344;-71
2023/03/06 07:48:50;;;;;;;8.83;5.57;;;4.90;99.90;;;;;;5074821;28;20175;-71
2023/03/06 07:51:20;;;;;;;6.33;4.90;;;5.00;99.90;;;;;;5073560;28;20168;-69
2023/03/06 07:53:47;;;;;;;6.80;5.47;;;5.00;99.90;;;;;;5074377;28;20173;-72
2023/03/06 07:56:13;;;;;;;5.65;5.15;;;5.10;99.90;;;;;;5074632;28;20165;-72
2023/03/06 07:58:41;;;;;;;6.43;4.70;;;5.10;99.90;;;;;;5074867;28;20687;-73
2023/03/06 08:01:10;;;;;;;4.85;4.00;;;5.20;99.90;;;;;;5075314;28;20435;-72
2023/03/06 08:03:36;;;;;;;5.25;4.65;;;5.20;99.90;;;;;;5072272;28;20234;-70
2023/03/06 08:06:11;;;;;;;7.57;3.87;;;5.30;99.90;;;;;;5085227;28;20579;-70
2023/03/06 08:08:38;;;;;;;5.85;4.70;;;5.40;99.90;;;;;;5093489;28;20177;-72
2023/03/06 08:11:05;;;;;;;10.38;5.63;;;5.50;99.90;;;;;;5094546;28;20173;-72
2023/03/06 08:13:31;;;;;;;8.52;4.78;;;5.50;99.90;;;;;;5094253;28;20192;-70
2023/03/06 08:15:58;;;;;;;7.20;4.77;;;5.60;99.90;;;;;;5093815;28;20169;-71
2023/03/06 08:18:24;;;;;;;5.13;4.13;;;5.70;99.90;;;;;;5074112;28;20861;-71
2023/03/06 08:20:49;;;;;;;4.40;3.20;;;5.80;99.90;;;;;;5073716;28;20177;-70
2023/03/06 08:23:15;;;;;;;4.90;4.40;;;5.90;99.90;;;;;;5072368;28;20198;-72
2023/03/06 08:25:41;;;;;;;7.83;4.77;;;5.90;99.90;;;;;;5074101;28;20226;-71
2023/03/06 08:28:07;;;;;;;8.60;4.85;;;6.00;99.90;;;;;;5074065;28;20211;-71
2023/03/06 08:30:33;;;;;;;6.80;5.03;;;6.20;99.90;;;;;;5073574;28;20260;-70
2023/03/06 08:33:00;;;;;;;4.40;4.03;;;6.30;99.90;;;;;;5073636;28;20173;-71
2023/03/06 08:35:25;;;;;;;4.22;3.10;;;6.40;99.90;;;;;;5073819;28;20184;-70
2023/03/06 08:37:51;;;;;;;5.80;3.50;;;6.50;99.90;;;;;;5073536;28;20723;-73
2023/03/06 08:40:16;;;;;;;5.23;3.87;;;6.70;99.90;;;;;;5072915;28;20181;-70
2023/03/06 08:42:42;;;;;;;5.67;3.73;;;6.90;99.90;;;;;;5073241;28;20232;-70
2023/03/06 08:45:08;;;;;;;5.00;3.80;;;7.00;99.90;;;;;;5073291;28;20188;-70
2023/03/06 08:47:35;;;;;;;7.07;4.05;;;7.20;99.90;;;;;;5072738;28;20403;-71
2023/03/06 08:50:00;;;;;;;4.15;3.42;;;7.40;99.60;;;;;;5073827;28;20246;-70
2023/03/06 08:52:26;;;;;;;5.23;3.77;;;7.50;99.60;;;;;;5073562;28;20635;-71
2023/03/06 08:54:51;;;;;;;4.00;3.10;;;7.70;98.70;;;;;;5073269;28;20193;-71
2023/03/06 08:57:17;;;;;;;5.40;3.47;;;7.80;98.30;;;;;;5073702;28;20173;-71
2023/03/06 08:59:43;;;;;;;3.50;2.73;;;8.00;98.30;;;;;;5073218;28;20192;-73
2023/03/06 09:02:11;;;;;;;6.37;3.10;;;8.20;98.00;;;;;;5072989;28;20180;-73
2023/03/06 09:04:37;;;;;;;3.42;3.13;;;8.20;97.40;;;;;;5072925;28;20283;-71
2023/03/06 09:07:03;;;;;;;4.93;4.27;;;8.10;97.60;;;;;;5073713;28;20673;-71
2023/03/06 09:09:28;;;;;;;3.90;2.53;;;8.10;97.40;;;;;;5073618;28;20177;-72
2023/03/06 09:11:55;;;;;;;3.17;2.70;;;8.00;97.40;;;;;;5072725;28;20542;-72
2023/03/06 09:14:20;;;;;;;5.00;2.80;;;7.80;97.80;;;;;;5072918;28;20183;-72
2023/03/06 09:16:46;;;;;;;4.10;3.50;;;7.80;97.90;;;;;;5073379;28;20168;-73
2023/03/06 09:19:12;;;;;;;2.60;2.40;;;7.70;98.40;;;;;;5073346;28;20169;-71
2023/03/06 09:21:37;;;;;;;6.77;3.87;;;7.60;98.40;;;;;;5073052;28;20180;-70
2023/03/06 09:24:03;;;;;;;5.40;3.90;;;7.60;98.50;;;;;;5072274;28;20227;-71
2023/03/06 09:26:29;;;;;;;6.60;4.50;;;7.50;98.60;;;;;;5072797;28;20177;-71
2023/03/06 09:28:54;;;;;;;5.20;3.60;;;7.50;98.80;;;;;;5073133;28;20175;-71
2023/03/06 09:31:20;;;;;;;3.97;3.00;;;7.50;98.80;;;;;;5072925;28;20180;-71
2023/03/06 09:33:47;;;;;;;8.80;3.50;;;7.50;98.90;;;;;;5072681;28;20196;-72
2023/03/06 09:36:16;;;;;;;3.42;2.92;;;7.50;98.70;;;;;;5073195;28;20248;-72
2023/03/06 09:38:42;;;;;;;5.78;3.83;;;7.60;99.00;;;;;;5072594;28;20223;-72
2023/03/06 09:41:21;;;;;;;5.23;3.50;;;7.70;98.80;;;;;;5071537;28;20694;-72
2023/03/06 09:43:50;;;;;;;2.70;2.50;;;7.60;98.10;;;;;;5071290;28;20204;-72
2023/03/06 09:46:23;;;;;;;4.13;3.30;;;7.60;97.90;;;;;;5071690;28;20545;-72
2023/03/06 09:49:09;;;;;;;4.13;3.55;;;7.50;98.10;;;;;;5073005;28;20180;-71
2023/03/06 09:51:54;;;;;;;5.95;3.58;;;7.40;98.60;;;;;;5073691;28;20169;-70
2023/03/06 09:54:34;;;;;;;8.13;3.22;;;7.40;98.80;;;;;;5072527;28;20234;-71
2023/03/06 09:56:59;;;;;;;3.72;2.90;;;7.30;98.80;;;;;;5073308;28;20551;-71
2023/03/06 09:59:27;;;;;;;4.67;2.80;;;7.30;98.90;;;;;;5073118;28;20276;-71
2023/03/06 10:02:17;;;;;;;4.70;3.55;;;7.20;98.90;;;;;;5085799;28;20184;-70
2023/03/06 10:04:48;;;;;;;4.97;3.67;;;7.10;99.00;;;;;;5073087;28;20208;-71
2023/03/06 10:07:35;;;;;;;6.45;4.55;;;7.10;99.20;;;;;;5071693;28;20267;-71
2023/03/06 10:10:04;;;;;;;2.97;2.63;;;7.10;99.60;;;;;;5071753;28;20168;-71
2023/03/06 10:12:39;;;;;;;5.20;4.68;;;7.10;99.40;;;;;;5071572;28;20204;-72
2023/03/06 10:15:22;;;;;;;2.95;2.67;;;7.10;99.40;;;;;;5072438;28;20206;-71
2023/03/06 10:17:48;;;;;;;4.05;3.72;;;7.20;99.60;;;;;;5072370;28;20180;-71
2023/03/06 10:20:33;;;;;;;6.18;3.05;;;7.20;99.60;;;;;;5072726;28;20656;-72
2023/03/06 10:24:06;;;;;;;9.25;4.10;;;7.30;99.60;;;;;;5072276;28;20207;-71
2023/03/06 10:26:41;;;;;;;5.88;4.20;;;7.40;99.60;;;;;;4971608;28;20190;-71
2023/03/06 10:29:33;;;;;;;4.28;3.10;;;7.40;99.00;;;;;;4974716;28;20214;-71
2023/03/06 10:32:42;;;;;;;4.75;4.13;;;7.40;99.00;;;;;;4990899;28;20238;-69
2023/03/06 10:35:16;;;;;;;4.53;3.72;;;7.30;98.80;;;;;;4972323;28;20199;-72
2023/03/06 10:37:42;;;;;;;4.68;3.42;;;7.40;99.00;;;;;;4978377;28;20638;-71
2023/03/06 10:40:17;;;;;;;3.90;3.43;;;7.40;98.90;;;;;;4995429;28;20187;-73
2023/03/06 10:42:42;;;;;;;6.97;4.72;;;7.20;98.80;;;;;;4994717;28;20678;-73
2023/03/06 10:45:14;;;;;;;6.27;4.53;;;7.20;99.10;;;;;;4994374;28;20250;-72
2023/03/06 10:47:41;;;;;;;6.18;3.88;;;7.20;99.20;;;;;;4994587;28;20556;-71
2023/03/06 10:50:29;;;;;;;3.88;3.42;;;7.30;99.30;;;;;;4962285;28;20677;-71
2023/03/06 10:53:04;;;;;;;4.65;3.13;;;7.30;99.20;;;;;;4994024;28;20271;-73
2023/03/06 10:55:34;;;;;;;3.35;2.97;;;7.30;98.80;;;;;;4994120;28;20302;-71
2023/03/06 10:58:29;;;;;;;3.10;2.83;;;7.30;98.60;;;;;;4994422;28;20179;-71
2023/03/06 11:01:19;;;;;;;2.72;2.53;;;7.20;98.50;;;;;;4994370;28;20278;-72
2023/03/06 11:03:46;;;;;;;4.18;3.47;;;7.20;98.50;;;;;;5074050;28;20207;-70
2023/03/06 11:06:14;;;;;;;3.50;3.05;;;7.30;98.60;;;;;;5075481;28;20180;-72
2023/03/06 11:08:42;;;;;;;4.70;2.90;;;7.40;98.60;;;;;;5075744;28;20176;-70
2023/03/06 11:11:12;;;;;;;4.07;3.67;;;7.40;98.30;;;;;;5075781;28;20172;-71
2023/03/06 11:13:40;;;;;;;4.03;3.65;;;7.40;98.30;;;;;;5075023;28;20250;-72
2023/03/06 11:16:30;;;;;;;2.72;2.53;;;7.50;98.00;;;;;;5073984;28;20172;-72
2023/03/06 11:19:02;;;;;;;3.22;2.92;;;7.60;97.40;;;;;;5074222;28;20540;-70
2023/03/06 11:21:38;;;;;;;5.13;3.60;;;7.60;97.10;;;;;;5075279;28;20536;-70
2023/03/06 11:24:20;;;;;;;3.72;3.30;;;7.70;97.30;;;;;;5074957;28;20417;-71
2023/03/06 11:26:52;;;;;;;5.00;3.38;;;7.80;97.20;;;;;;5075358;28;20577;-71
2023/03/06 11:29:31;;;;;;;5.80;3.63;;;7.80;97.00;;;;;;5075355;28;20620;-73
2023/03/06 11:32:17;;;;;;;4.47;3.10;;;8.00;96.90;;;;;;5075165;28;20172;-71
2023/03/06 11:34:46;;;;;;;5.53;3.58;;;8.10;96.60;;;;;;5073450;28;20189;-71
2023/03/06 11:37:23;;;;;;;7.03;3.60;;;8.20;96.10;;;;;;5074863;28;20177;-71
2023/03/06 11:40:09;;;;;;;4.18;2.90;;;8.40;96.10;;;;;;5075195;28;20223;-71
2023/03/06 11:42:42;;;;;;;5.45;3.35;;;8.40;95.20;;;;;;5068901;28;20270;-71
2023/03/06 11:45:12;;;;;;;3.08;2.88;;;8.50;95.00;;;;;;5072212;28;20198;-71
2023/03/06 11:47:43;;;;;;;4.07;3.10;;;8.50;95.10;;;;;;5074980;28;20248;-71
2023/03/06 11:50:42;;;;;;;3.67;3.00;;;8.60;95.20;;;;;;5074391;28;20192;-72
2023/03/06 11:53:16;;;;;;;5.05;3.28;;;8.60;94.70;;;;;;5035165;28;20582;-71
2023/03/06 11:56:18;;;;;;;3.45;3.05;;;8.80;94.70;;;;;;5047731;28;20199;-71
2023/03/06 11:59:12;;;;;;;4.25;3.10;;;9.00;94.00;;;;;;5051256;28;20665;-70
2023/03/06 12:02:03;;;;;;;4.55;3.13;;;9.00;94.00;;;;;;5072085;28;20215;-71
2023/03/06 12:04:56;;;;;;;2.80;2.60;;;9.00;93.90;;;;;;5071705;28;20216;-68
2023/03/06 12:07:36;;;;;;;6.22;3.78;;;8.90;93.90;;;;;;5072433;28;20170;-70
2023/03/06 12:10:12;;;;;;;3.00;2.80;;;8.90;94.10;;;;;;5051390;28;20171;-70
2023/03/06 12:12:37;;;;;;;4.20;3.50;;;9.00;94.40;;;;;;5051509;28;20421;-69
2023/03/06 12:15:32;;;;;;;3.53;3.10;;;9.00;94.00;;;;;;5051432;28;20209;-69
2023/03/06 12:18:24;;;;;;;3.43;3.13;;;9.10;93.90;;;;;;5052030;28;20193;-69
2023/03/06 12:21:05;;;;;;;4.32;3.35;;;9.00;93.90;;;;;;5022206;28;20467;-70
2023/03/06 12:23:50;;;;;;;4.28;3.13;;;9.00;93.60;;;;;;5051702;28;20263;-69
2023/03/06 12:26:29;;;;;;;3.10;2.80;;;9.20;93.60;;;;;;5051918;28;20578;-70
2023/03/06 12:28:58;;;;;;;3.50;3.20;;;9.30;93.60;;;;;;5064994;28;20413;-69
2023/03/06 12:31:56;;;;;;;3.37;2.93;;;9.50;93.10;;;;;;5073825;28;20795;-70
2023/03/06 12:34:42;;;;;;;5.70;3.90;;;9.40;93.30;;;;;;5073455;28;20433;-68
2023/03/06 12:37:38;;;;;;;3.78;2.55;;;9.50;93.20;;;;;;5074035;28;20900;-69
2023/03/06 12:40:19;;;;;;;4.70;2.80;;;9.40;92.70;;;;;;5073646;28;20182;-72
2023/03/06 12:43:09;;;;;;;5.22;3.42;;;9.50;92.90;;;;;;5071891;28;20487;-73
2023/03/06 12:45:38;;;;;;;3.70;3.20;;;9.60;92.40;;;;;;5073488;28;20204;-71
2023/03/06 12:48:21;;;;;;;4.60;3.20;;;9.60;92.10;;;;;;5073453;28;20419;-72
2023/03/06 12:50:48;;;;;;;10.03;3.63;;;9.50;91.80;;;;;;5073892;28;20393;-72
2023/03/06 13:01:29;;;;;;;3.03;2.75;;;8.80;92.30;;;;;;5074528;22;20557;-70
2023/03/06 13:04:32;;;;;;;4.30;3.17;;;8.80;92.40;;;;;;5072864;28;20200;-70
2023/03/06 13:07:16;;;;;;;4.78;3.70;;;8.60;92.70;;;;;;5055101;28;20245;-69
2023/03/06 13:10:00;;;;;;;5.68;3.38;;;8.60;93.10;;;;;;5043231;28;20616;-70
2023/03/06 13:12:48;;;;;;;4.05;3.25;;;8.50;93.40;;;;;;5016184;28;20637;-69
2023/03/06 13:15:36;;;;;;;5.85;4.78;;;8.60;93.80;;;;;;5053065;28;20243;-71
2023/03/06 13:18:20;;;;;;;4.55;3.65;;;8.50;95.10;;;;;;5035587;28;20178;-70
2023/03/06 13:20:51;;;;;;;3.95;3.38;;;8.30;95.30;;;;;;5051963;28;20648;-72
2023/03/06 13:23:29;;;;;;;5.68;4.70;;;8.20;95.10;;;;;;5050501;28;20224;-71
2023/03/06 13:26:24;;;;;;;5.90;4.82;;;8.20;95.20;;;;;;5051289;28;20184;-71
2023/03/06 13:28:55;;;;;;;3.72;3.42;;;8.30;95.40;;;;;;5033737;28;20279;-70
2023/03/06 13:31:31;;;;;;;4.22;2.80;;;8.30;94.70;;;;;;5051576;28;20169;-72
2023/03/06 13:33:58;;;;;;;4.85;4.20;;;8.40;93.90;;;;;;5050994;28;20706;-72
2023/03/06 13:36:28;;;;;;;3.80;2.55;;;8.60;93.10;;;;;;5051845;28;20209;-70
2023/03/06 13:38:55;;;;;;;4.78;4.35;;;8.60;92.70;;;;;;5052755;28;20201;-70
2023/03/06 13:41:29;;;;;;;2.83;2.58;;;8.70;93.00;;;;;;5034731;28;20177;-70
2023/03/06 13:44:19;;;;;;;3.80;2.72;;;8.80;92.50;;;;;;5052392;28;20296;-72
2023/03/06 13:46:59;;;;;;;4.30;2.70;;;8.80;92.60;;;;;;5042126;28;20205;-70
2023/03/06 13:49:26;;;;;;;6.35;2.65;;;8.80;92.30;;;;;;5053070;28;20276;-71
2023/03/06 13:51:52;;;;;;;4.15;2.72;;;8.90;92.10;;;;;;5052928;28;20656;-72
2023/03/06 13:54:33;;;;;;;6.43;4.53;;;8.90;92.40;;;;;;5051997;28;20181;-70
2023/03/06 13:57:24;;;;;;;4.07;3.28;;;9.00;92.60;;;;;;5052478;28;20556;-71
2023/03/06 14:00:19;;;;;;;4.13;2.63;;;9.00;92.30;;;;;;5052731;28;20289;-71
2023/03/06 14:03:01;;;;;;;4.53;3.28;;;9.00;92.20;;;;;;5052744;28;20538;-70
2023/03/06 14:05:50;;;;;;;4.20;2.80;;;8.90;92.00;;;;;;5052546;28;20170;-71
2023/03/06 14:08:24;;;;;;;2.42;2.03;;;8.80;91.60;;;;;;5053222;28;20223;-70
2023/03/06 14:11:07;;;;;;;4.70;3.38;;;8.70;91.60;;;;;;5056426;28;20673;-70
2023/03/06 14:13:38;;;;;;;3.25;3.00;;;8.60;91.50;;;;;;5055716;28;20201;-70
2023/03/06 14:16:16;;;;;;;3.42;3.15;;;8.50;91.60;;;;;;5056259;28;20640;-69
2023/03/06 14:18:46;;;;;;;2.97;2.53;;;8.40;91.60;;;;;;5038683;28;20173;-68
2023/03/06 14:21:14;;;;;;;6.50;2.92;;;8.30;91.90;;;;;;5056489;28;20165;-70
2023/03/06 14:23:42;;;;;;;2.55;2.35;;;8.20;91.80;;;;;;5037773;28;20201;-71
2023/03/06 14:26:18;;;;;;;5.10;3.28;;;8.20;91.90;;;;;;5056341;28;20162;-71
2023/03/06 14:28:57;;;;;;;20.52;4.45;;;8.20;92.30;;;;;;5055987;28;20177;-70
2023/03/06 14:31:26;;;;;;;4.10;3.63;;;8.30;92.10;;;;;;5038381;28;20581;-71
2023/03/06 14:34:05;;;;;;;4.30;3.28;;;8.30;91.90;;;;;;5055736;28;20177;-71
2023/03/06 14:36:41;;;;;;;4.60;3.25;;;8.20;92.10;;;;;;5055903;28;20172;-70
2023/03/06 14:39:19;;;;;;;3.33;2.80;;;8.20;91.80;;;;;;5035529;28;20255;-70
2023/03/06 14:41:44;;;;;;;4.15;3.08;;;8.10;92.00;;;;;;5037733;28;20513;-70
2023/03/06 14:44:16;;;;;;;3.30;3.00;;;8.10;92.10;;;;;;5055788;28;20212;-70
2023/03/06 14:46:45;;;;;;;4.38;2.88;;;8.00;92.00;;;;;;5056025;28;20195;-70
2023/03/06 14:49:14;;;;;;;2.63;2.35;;;7.90;92.10;;;;;;5055814;28;20189;-70
2023/03/06 14:51:59;;;;;;;4.88;3.45;;;7.80;91.80;;;;;;5055544;28;20622;-72
2023/03/06 14:54:29;;;;;;;5.43;2.60;;;7.80;91.70;;;;;;5037376;28;20705;-71
2023/03/06 14:57:02;;;;;;;3.17;2.67;;;7.70;91.90;;;;;;5055998;28;20166;-70
2023/03/06 14:59:31;;;;;;;3.55;3.10;;;7.70;91.90;;;;;;5055534;28;20212;-71
2023/03/06 15:02:03;;;;;;;4.47;3.00;;;7.60;92.50;;;;;;5055753;28;20180;-72
2023/03/06 15:04:41;;;;;;;3.72;3.20;;;7.60;92.30;;;;;;5055436;28;20205;-71
2023/03/06 15:07:11;;;;;;;4.90;3.10;;;7.50;92.70;;;;;;5037575;28;20640;-71
2023/03/06 15:09:39;;;;;;;4.03;3.22;;;7.50;92.70;;;;;;5055329;28;20192;-70
2023/03/06 15:12:07;;;;;;;4.35;3.40;;;7.40;92.90;;;;;;5055424;28;20158;-71
2023/03/06 15:14:34;;;;;;;3.22;2.92;;;7.40;92.90;;;;;;5055148;28;20169;-71
2023/03/06 15:17:18;;;;;;;3.10;2.78;;;7.40;92.70;;;;;;5055730;28;20178;-71
2023/03/06 15:19:53;;;;;;;3.55;2.83;;;7.40;92.70;;;;;;5054485;28;20196;-70
2023/03/06 15:22:39;;;;;;;6.82;3.65;;;7.40;93.00;;;;;;5055300;28;20149;-71
2023/03/06 15:25:28;;;;;;;3.30;3.00;;;7.40;93.20;;;;;;5055260;28;20176;-71
2023/03/06 15:27:57;;;;;;;2.53;2.33;;;7.40;93.10;;;;;;5055340;28;20200;-68
2023/03/06 15:30:32;;;;;;;6.70;3.03;;;7.40;93.00;;;;;;5056147;28;20288;-71
2023/03/06 15:33:18;;;;;;;3.78;2.70;;;7.30;92.60;;;;;;5059974;28;20258;-70
2023/03/06 15:36:05;;;;;;;4.93;3.45;;;7.30;92.20;;;;;;5045278;28;20195;-71
2023/03/06 15:38:42;;;;;;;3.50;2.80;;;7.20;92.00;;;;;;5064962;28;20174;-70
2023/03/06 15:41:34;;;;;;;4.13;3.05;;;7.10;92.30;;;;;;5063352;28;20192;-71
2023/03/06 15:44:07;;;;;;;4.53;3.30;;;7.10;92.20;;;;;;5063749;28;20227;-70
2023/03/06 15:46:32;;;;;;;3.42;3.10;;;7.00;92.20;;;;;;5059631;28;20200;-71
2023/03/06 15:49:01;;;;;;;3.60;2.87;;;6.90;92.60;;;;;;5056724;28;20189;-70
2023/03/06 15:51:28;;;;;;;4.35;2.90;;;6.80;92.90;;;;;;5063914;28;20169;-71
2023/03/06 15:53:54;;;;;;;6.80;3.45;;;6.70;93.30;;;;;;5047564;28;20549;-72
2023/03/06 15:56:27;;;;;;;6.80;3.93;;;6.70;93.90;;;;;;5065121;28;20183;-71
2023/03/06 15:58:53;;;;;;;5.70;3.53;;;6.70;93.30;;;;;;5060926;28;20567;-70
2023/03/06 16:01:19;;;;;;;4.30;2.90;;;6.60;93.50;;;;;;5056208;28;20188;-69
2023/03/06 16:03:45;;;;;;;4.50;3.70;;;6.50;93.90;;;;;;5054294;28;20205;-70
2023/03/06 16:06:20;;;;;;;6.80;3.60;;;6.50;93.80;;;;;;5055223;28;20528;-70
2023/03/06 16:08:46;;;;;;;5.15;3.70;;;6.40;94.10;;;;;;5055348;28;20415;-71
2023/03/06 16:11:24;;;;;;;5.97;3.70;;;6.40;94.50;;;;;;5056121;28;20169;-67
2023/03/06 16:13:50;;;;;;;5.28;4.00;;;6.40;94.90;;;;;;5053943;28;20226;-68
2023/03/06 16:16:21;;;;;;;4.85;3.10;;;6.30;95.20;;;;;;5054681;28;20203;-65
2023/03/06 16:18:49;;;;;;;3.70;3.00;;;6.30;96.00;;;;;;5054348;28;20189;-69
2023/03/06 16:21:15;;;;;;;5.03;3.67;;;6.20;96.00;;;;;;5032362;28;20299;-70
2023/03/06 16:23:41;;;;;;;3.80;3.03;;;6.20;96.40;;;;;;5031822;28;20633;-67
2023/03/06 16:26:18;;;;;;;3.83;3.30;;;6.10;96.50;;;;;;5032267;28;20577;-66
2023/03/06 16:28:44;;;;;;;5.00;4.07;;;6.10;97.00;;;;;;5031950;28;20259;-68
2023/03/06 16:31:13;;;;;;;3.92;3.15;;;6.00;97.70;;;;;;5032106;28;20189;-67
2023/03/06 16:33:40;;;;;;;4.78;3.50;;;6.00;98.10;;;;;;5031847;28;20667;-70
2023/03/06 16:36:26;;;;;;;4.18;3.63;;;5.90;98.80;;;;;;5032275;28;20198;-69
2023/03/06 16:38:52;;;;;;;6.53;3.65;;;5.90;99.60;;;;;;5015400;28;20196;-67
2023/03/06 16:41:20;;;;;;;6.40;4.10;;;5.80;99.90;;;;;;5031723;28;20202;-70
2023/03/06 16:43:47;;;;;;;5.40;4.00;;;5.70;99.90;;;;;;5031343;28;20462;-69
2023/03/06 16:46:16;;;;;;;5.20;3.22;;;5.70;99.90;;;;;;5032185;28;20178;-68
2023/03/06 16:48:42;;;;;;;3.88;3.47;;;5.70;99.90;;;;;;5031816;28;20189;-68
2023/03/06 16:51:20;;;;;;;6.33;3.80;;;5.60;99.90;;;;;;5033098;28;20636;-68
2023/03/06 16:53:46;;;;;;;5.00;4.25;;;5.60;99.90;;;;;;5035371;28;20585;-69
2023/03/06 16:56:14;;;;;;;5.93;3.92;;;5.60;99.90;;;;;;5053483;28;20538;-71
2023/03/06 16:58:40;;;;;;;3.35;3.05;;;5.60;99.90;;;;;;5053549;28;20170;-70
2023/03/06 17:01:07;;;;;;;4.10;3.70;;;5.50;99.90;;;;;;5052473;28;20200;-67
2023/03/06 17:03:33;;;;;;;7.20;4.85;;;5.50;99.90;;;;;;5052485;28;20208;-69
2023/03/06 17:06:00;;;;;;;5.55;4.30;;;5.50;99.90;;;;;;5053419;28;20162;-68
2023/03/06 17:08:25;;;;;;;8.45;5.10;;;5.50;99.90;;;;;;5035344;28;20197;-68
2023/03/06 17:10:51;;;;;;;4.30;3.90;;;5.40;99.90;;;;;;5035370;28;20230;-69
2023/03/06 17:13:17;;;;;;;4.83;3.63;;;5.40;99.90;;;;;;5053460;28;20416;-70
2023/03/06 17:15:55;;;;;;;7.37;4.87;;;5.40;99.90;;;;;;5036329;28;20182;-70
2023/03/06 17:18:23;;;;;;;4.95;4.40;;;5.30;99.90;;;;;;5053579;28;20411;-69
2023/03/06 17:20:50;;;;;;;4.53;3.45;;;5.30;99.90;;;;;;5052986;28;20187;-66
2023/03/06 17:23:20;;;;;;;5.88;3.65;;;5.40;99.90;;;;;;5034973;28;20199;-69
2023/03/06 17:25:46;;;;;;;5.28;3.83;;;5.30;99.90;;;;;;5053263;28;20172;-69
2023/03/06 17:28:12;;;;;;;5.53;4.20;;;5.30;99.90;;;;;;5053311;28;20721;-68
2023/03/06 17:30:38;;;;;;;6.75;4.40;;;5.30;99.90;;;;;;5052546;28;20185;-70
2023/03/06 17:33:04;;;;;;;7.15;5.78;;;5.20;99.90;;;;;;5052833;28;20234;-67
2023/03/06 17:35:32;;;;;;;6.45;4.68;;;5.20;99.90;;;;;;5053386;28;20170;-68
2023/03/06 17:37:57;;;;;;;9.25;5.38;;;5.20;99.90;;;;;;5052882;28;20722;-68
2023/03/06 17:40:23;;;;;;;5.70;3.80;;;5.20;99.90;;;;;;5052900;28;20205;-70
2023/03/06 17:42:50;;;;;;;5.07;4.23;;;5.20;99.90;;;;;;5052728;28;20205;-70
2023/03/06 17:45:16;;;;;;;6.20;4.63;;;5.20;99.90;;;;;;5057098;28;20164;-69
2023/03/06 17:47:42;;;;;;;6.72;4.40;;;5.10;99.90;;;;;;5057005;28;20248;-69
2023/03/06 17:50:08;;;;;;;3.63;3.27;;;5.10;99.90;;;;;;5038806;28;20262;-71
2023/03/06 17:52:34;;;;;;;6.03;3.92;;;5.00;99.90;;;;;;5038410;28;20311;-69
2023/03/06 17:55:00;;;;;;;6.87;3.50;;;5.00;99.90;;;;;;5056566;28;20625;-67
2023/03/06 17:57:25;;;;;;;4.33;3.93;;;5.00;99.90;;;;;;5056964;28;20252;-68
2023/03/06 17:59:52;;;;;;;5.73;4.40;;;5.00;99.90;;;;;;5056109;28;20235;-69
2023/03/06 18:02:18;;;;;;;5.18;4.38;;;5.00;99.90;;;;;;5056609;28;20173;-69
2023/03/06 18:04:44;;;;;;;6.60;4.10;;;4.90;99.90;;;;;;5056340;28;20206;-70
2023/03/06 18:07:10;;;;;;;7.80;3.80;;;4.90;99.90;;;;;;5056529;28;20167;-69
2023/03/06 18:09:36;;;;;;;7.93;4.13;;;4.90;99.90;;;;;;5056478;28;20322;-72
2023/03/06 18:12:02;;;;;;;5.30;4.20;;;4.80;99.90;;;;;;5017143;28;20711;-69
2023/03/06 18:14:28;;;;;;;7.03;4.22;;;4.80;99.90;;;;;;5033121;28;20327;-67
2023/03/06 18:16:53;;;;;;;5.07;3.80;;;4.80;99.90;;;;;;5040244;28;20242;-67
2023/03/06 18:19:19;;;;;;;7.90;3.97;;;4.80;99.90;;;;;;5021462;28;20203;-71
2023/03/06 18:21:46;;;;;;;5.20;3.70;;;4.80;99.90;;;;;;5032848;28;20750;-70
2023/03/06 18:24:13;;;;;;;5.78;4.60;;;4.80;99.90;;;;;;5016221;28;20678;-68
2023/03/06 18:26:43;;;;;;;10.65;5.30;;;4.80;99.90;;;;;;5034032;28;20186;-65
2023/03/06 18:29:09;;;;;;;5.35;3.88;;;4.80;99.90;;;;;;5033266;28;20195;-66
2023/03/06 18:31:37;;;;;;;7.80;4.67;;;4.80;99.90;;;;;;5016843;28;20681;-67